• Join FlightAware (Why Join?)
  • Login
  • US Flag 
08:21AM EST


 

Airport Tracker/Info


-or-


 

Live Flight TrackerFlight Track Log ✈ ASQ6188 ✈ 02-May-2013 ✈ KCRW - KORD

Flight Track Log - Related Links

Times and Time Zones

All times are in EDT time to prevent confusion due to time zone crossing. See the ASQ6188 flight status page for this flight to view local times or setup timezone preferences in your user account.

Time Position Orientation Groundspeed Altitude Reporting Facility
EDT Latitude Longitude Course Direction KTS MPH feet Rate Location/Type
04:16PM 38.4219 -81.6861 330° Northwest 216 249 4,600  Level Indianapolis Center
04:17PM 38.4722 -81.7381 321° Northwest 228 262 7,400 2,520 Climbing Indianapolis Center
04:18PM 38.5239 -81.7903 322° Northwest 234 269 9,900 1,620 Climbing Indianapolis Center
04:19PM 38.5850 -81.8508 322° Northwest 276 318 10,800 1,320 Climbing Indianapolis Center
04:20PM 39.0184 -82.3689 314° West  Level FlightAware Approximate
04:20PM 38.6561 -81.9250 321° Northwest 322 371 12,700  Level Indianapolis Center
04:21PM 38.7292 -82.0006 321° Northwest 333 383 14,400 1,560 Climbing Indianapolis Center
04:22PM 38.8011 -82.0858 317° Northwest 349 402 16,000 1,380 Climbing Indianapolis Center
04:23PM 38.8719 -82.1769 315° West 358 412 17,300 1,260 Climbing Indianapolis Center
04:24PM 38.9606 -82.2892 315° West 371 427 18,700 1,200 Climbing Indianapolis Center
04:25PM 39.0361 -82.3883 314° West 385 443 19,900 1,080 Climbing Indianapolis Center
04:26PM 39.1139 -82.4881 315° West 393 452 21,000 600 Climbing Indianapolis Center
04:27PM 39.2028 -82.6014 315° West 418 481 21,200 360 Climbing Indianapolis Center
04:28PM 39.2892 -82.7136 315° West 435 501 21,800 780 Climbing Indianapolis Center
04:29PM 39.3747 -82.8272 314° West 436 502 22,900 840 Climbing Indianapolis Center
04:30PM 39.4619 -82.9392 315° West 439 505 23,600 780 Climbing Indianapolis Center
04:31PM 39.5469 -83.0525 314° West 436 502 24,600 960 Climbing Indianapolis Center
04:32PM 39.6325 -83.1653 315° West 435 501 25,700 660 Climbing Indianapolis Center
04:33PM 39.7331 -83.2978 315° West 439 505 26,000 120 Climbing Indianapolis Center
04:34PM 39.8161 -83.4078 315° West 455 524 26,000  Level Indianapolis Center
04:35PM 39.9081 -83.5306 314° West 470 541 26,000  Level Indianapolis Center
04:36PM 40.0025 -83.6578 314° West 476 548 26,000  Level Indianapolis Center
04:37PM 40.1111 -83.8050 314° West 478 550 26,000  Level Indianapolis Center
04:38PM 40.2042 -83.9306 314° West 478 550 26,000  Level Indianapolis Center
04:39PM 40.2969 -84.0578 314° West 479 551 26,000  Level Indianapolis Center
04:41PM 40.3619 -84.1668 308° West  Level FlightAware Approximate
04:44PM 40.6619 -84.6583 308° West 478 550 26,000  Level Chicago Center
04:45PM 40.7453 -84.7953 301° West 479 551 26,000  Level Chicago Center
04:46PM 40.8286 -84.9736 302° West 474 545 26,000  Level Chicago Center
04:47PM 40.7546 -84.8751 301° West  Level Estimated
04:47PM 40.8936 -85.1239 300° West 474 545 26,000  Level Chicago Center
04:48PM 40.7752 -84.8633 309° West  Level FlightAware Approximate
04:48PM 40.9558 -85.2700 299° West 461 531 26,000  Level Chicago Center
04:49PM 40.8348 -84.9625 308° West  Level FlightAware Approximate
04:49PM 41.0161 -85.4069 300° West 438 504 25,400  Level Chicago Center
04:50PM 41.0764 -85.5494 299° West 442 509 25,000 -240 Descending Chicago Center
04:51PM 41.1358 -85.6886 300° West 434 499 25,000  Level Chicago Center
04:52PM 41.1958 -85.8311 299° West 438 504 25,000 -180 Level Chicago Center
04:53PM 41.2686 -86.0028 299° West 442 509 24,700 -660 Descending Chicago Center
04:54PM 41.3119 -86.1533 291° West 439 505 23,700 -1,140 Descending Chicago Center
04:55PM 41.3508 -86.3047 289° West 435 501 22,400 -1,740 Descending Chicago Center
04:56PM 41.3878 -86.4528 288° West 425 489 20,200 -2,280 Descending Chicago Center
04:57PM 41.4214 -86.5894 288° West 402 463 17,800 -2,400 Descending Chicago Center
04:58PM 41.4622 -86.7514 289° West 389 448 15,200 -1,800 Descending Chicago Center
04:59PM 41.4953 -86.8822 289° West 378 435 14,200 -960 Descending Chicago Center
05:00PM 41.5253 -87.0100 287° West 368 423 13,300 -960 Descending Chicago Center
05:02PM 41.5569 -87.1408 288° West 371 427 12,300 -780 Descending Chicago Center
05:02PM 41.5833 -87.2333 291° West 369 425 12,000 -360 Descending Chicago TRACON
05:03PM 41.6500 -87.3500 307° West 377 434 11,800 -300 Descending Chicago TRACON
05:04PM 41.6731 -87.3967 303° West 374 430 11,600 -540 Descending Chicago Center
05:05PM 41.7239 -87.5189 299° West 377 434 11,000 -600 Descending Chicago Center
05:06PM 41.7731 -87.6303 301° West 354 407 10,400 -720 Descending Chicago Center
05:06PM 41.7833 -87.6667 291° West 304 350 10,100 -1,200 Descending Chicago TRACON
05:07PM 41.8167 -87.7667 294° West 289 333 8,900 -1,200 Descending Chicago TRACON
05:08PM 41.8167 -87.8500 270° West 278 320 7,900 -1,200 Descending Chicago TRACON
05:09PM 41.7994 -87.9303 254° West 246 283 6,800 -1,200 Descending Chicago Center
05:10PM 41.8067 -88.0119 277° West 242 278 5,600 -1,200 Descending Chicago Center
05:11PM 41.8542 -88.0497 329° Northwest 233 268 4,400 -1,260 Descending Chicago Center
05:12PM 41.8803 -87.9903 59° Northeast 201 231 3,100 -1,320 Descending Chicago Center
05:13PM 41.9167 -87.9500 39° Northeast 136 157 1,800 -1,080 Descending Chicago TRACON
05:14PM 41.9333 -87.9167 56° Northeast 121 139 1,100 -780 Descending Chicago TRACON
05:16PM 41.9667 -87.9000 323° Northwest  Level FlightAware Approximate